createdAt,value
2017-12-13T00:00:50.295Z,79.74
2017-12-13T00:01:50.558Z,79.69
2017-12-13T00:02:50.369Z,80.11
2017-12-13T00:03:50.583Z,80.3
2017-12-13T00:04:50.603Z,80.21
2017-12-13T00:05:50.608Z,79.74
2017-12-13T00:06:50.621Z,80.36
2017-12-13T00:07:50.383Z,80.17
2017-12-13T00:08:50.651Z,80.74
2017-12-13T00:09:50.409Z,80.55
2017-12-13T00:10:50.421Z,80.17
2017-12-13T00:11:50.434Z,80.17
2017-12-13T00:12:50.699Z,80.36
2017-12-13T00:13:50.713Z,80.36
2017-12-13T00:14:50.477Z,80.17
2017-12-13T00:15:50.739Z,79.98
2017-12-13T00:16:50.749Z,80.55
2017-12-13T00:17:51.560Z,80.07
2017-12-13T00:18:50.521Z,80.17
2017-12-13T00:19:50.532Z,80.17
2017-12-13T00:20:50.545Z,80.45
2017-12-13T00:21:50.809Z,80.55
2017-12-13T00:22:50.821Z,80.55
2017-12-13T00:23:50.834Z,80.36
2017-12-13T00:24:50.846Z,80.74
2017-12-13T00:25:50.857Z,80.74
2017-12-13T00:26:50.872Z,80.07
2017-12-13T00:27:50.883Z,80.17
2017-12-13T00:28:50.895Z,79.93
2017-12-13T00:29:50.911Z,79.36
2017-12-13T00:30:50.929Z,79.74
2017-12-13T00:31:50.933Z,80.21
2017-12-13T00:32:50.994Z,79.93
2017-12-13T00:33:50.957Z,79.36
2017-12-13T00:34:50.970Z,79.64
2017-12-13T00:35:50.993Z,79.32
2017-12-13T00:36:50.994Z,80.07
2017-12-13T00:37:51.071Z,79.98
2017-12-13T00:38:51.029Z,79.88
2017-12-13T00:39:51.034Z,80.26
2017-12-13T00:40:51.050Z,79.69
2017-12-13T00:41:51.055Z,80.17
2017-12-13T00:42:50.816Z,79.69
2017-12-13T00:43:51.080Z,79.69
2017-12-13T00:44:51.093Z,79.93
2017-12-13T00:45:51.110Z,79.64
2017-12-13T00:46:51.118Z,79.6
2017-12-13T00:47:50.928Z,79.6
2017-12-13T00:48:51.142Z,80.02
2017-12-13T00:49:50.901Z,79.64
2017-12-13T00:50:51.174Z,79.36
2017-12-13T00:51:51.182Z,79.69
2017-12-13T00:52:50.941Z,79.13
2017-12-13T00:53:50.954Z,79.36
2017-12-13T00:54:50.967Z,79.17
2017-12-13T00:55:51.230Z,79.07
2017-12-13T00:56:51.241Z,79.07
2017-12-13T00:57:51.253Z,79.22
2017-12-13T00:58:51.014Z,79.64
2017-12-13T00:59:51.031Z,79.36
2017-12-13T01:00:51.038Z,79.36
2017-12-13T01:01:51.050Z,79.45
2017-12-13T01:02:51.366Z,79.55
2017-12-13T01:03:51.075Z,79.45
2017-12-13T01:04:51.347Z,78.88
2017-12-13T01:05:51.103Z,79.26
2017-12-13T01:06:51.365Z,79.36
2017-12-13T01:07:51.380Z,80.11
2017-12-13T01:08:51.389Z,79.36
2017-12-13T01:09:51.404Z,80.11
2017-12-13T01:10:51.419Z,79.64
2017-12-13T01:11:51.429Z,80.17
2017-12-13T01:12:51.444Z,79.5
2017-12-13T01:13:51.456Z,80.17
2017-12-13T01:14:51.465Z,79.5
2017-12-13T01:15:51.478Z,79.88
2017-12-13T01:16:51.237Z,79.93
2017-12-13T01:17:51.553Z,79.88
2017-12-13T01:18:51.518Z,79.79
2017-12-13T01:19:51.275Z,80.07
2017-12-13T01:20:51.289Z,79.69
2017-12-13T01:21:51.302Z,79.98
2017-12-13T01:22:51.563Z,80.74
2017-12-13T01:23:51.575Z,80.45
2017-12-13T01:24:51.588Z,80.17
2017-12-13T01:25:51.349Z,80.26
2017-12-13T01:26:51.613Z,80.74
2017-12-13T01:27:51.375Z,79.79
2017-12-13T01:28:51.650Z,80.07
2017-12-13T01:29:51.650Z,79.88
2017-12-13T01:30:51.412Z,80.36
2017-12-13T01:31:51.675Z,80.45
2017-12-13T01:32:51.742Z,80.64
2017-12-13T01:33:51.449Z,80.64
2017-12-13T01:34:51.462Z,80.17
2017-12-13T01:35:51.475Z,80.74
2017-12-13T01:36:51.735Z,80.36
2017-12-13T01:37:51.751Z,80.26
2017-12-13T01:38:51.509Z,80.36
2017-12-13T01:39:51.774Z,80.64
2017-12-13T01:40:51.788Z,80.64
2017-12-13T01:41:51.795Z,80.55
2017-12-13T01:42:51.561Z,80.64
2017-12-13T01:43:51.823Z,80.64
2017-12-13T01:44:51.837Z,80.55
2017-12-13T01:45:51.851Z,80.74
2017-12-13T01:46:51.862Z,80.74
2017-12-13T01:47:51.872Z,80.26
2017-12-13T01:48:51.886Z,80.55
2017-12-13T01:49:51.898Z,80.36
2017-12-13T01:50:51.920Z,80.74
2017-12-13T01:51:51.670Z,81.12
2017-12-13T01:52:51.934Z,80.74
2017-12-13T01:53:51.948Z,80.74
2017-12-13T01:54:51.966Z,81.02
2017-12-13T01:55:51.970Z,80.64
2017-12-13T01:56:51.983Z,80.36
2017-12-13T01:57:51.997Z,80.45
2017-12-13T01:58:52.008Z,80.45
2017-12-13T01:59:52.023Z,80.74
2017-12-13T02:00:52.035Z,80.74
2017-12-13T02:01:51.793Z,80.45
2017-12-13T02:02:52.059Z,80.17
2017-12-13T02:03:52.071Z,80.07
2017-12-13T02:04:52.082Z,80.07
2017-12-13T02:05:51.842Z,80.07
2017-12-13T02:06:51.855Z,80.17
2017-12-13T02:07:52.119Z,80.17
2017-12-13T02:08:52.132Z,80.64
2017-12-13T02:09:52.145Z,80.45
2017-12-13T02:10:52.162Z,80.26
2017-12-13T02:11:51.918Z,80.74
2017-12-13T02:12:52.183Z,79.69
2017-12-13T02:13:51.950Z,80.26
2017-12-13T02:14:52.210Z,79.98
2017-12-13T02:15:52.220Z,80.17
2017-12-13T02:16:51.983Z,80.45
2017-12-13T02:17:51.992Z,80.64
2017-12-13T02:18:52.003Z,80.26
2017-12-13T02:19:52.321Z,80.55
2017-12-13T02:20:52.280Z,80.64
2017-12-13T02:21:52.040Z,80.45
2017-12-13T02:22:52.305Z,80.83
2017-12-13T02:23:52.072Z,81.02
2017-12-13T02:24:52.329Z,81.12
2017-12-13T02:25:52.091Z,80.83
2017-12-13T02:26:52.101Z,80.74
2017-12-13T02:27:52.369Z,81.02
2017-12-13T02:28:52.125Z,80.64
2017-12-13T02:29:52.392Z,80.45
2017-12-13T02:30:52.403Z,80.64
2017-12-13T02:31:52.414Z,81.02
2017-12-13T02:32:52.426Z,80.74
2017-12-13T02:33:52.439Z,80.83
2017-12-13T02:34:52.502Z,80.83
2017-12-13T02:35:52.474Z,81.4
2017-12-13T02:36:52.474Z,80.83
2017-12-13T02:37:52.499Z,81.59
2017-12-13T02:38:52.500Z,81.68
2017-12-13T02:39:52.259Z,81.68
2017-12-13T02:40:52.525Z,80.83
2017-12-13T02:41:52.539Z,81.02
2017-12-13T02:42:52.551Z,80.83
2017-12-13T02:43:52.561Z,80.93
2017-12-13T02:44:52.590Z,81.02
2017-12-13T02:45:52.592Z,80.55
2017-12-13T02:46:52.599Z,80.64
2017-12-13T02:47:52.359Z,80.64
2017-12-13T02:48:52.631Z,80.74
2017-12-13T02:49:52.683Z,80.93
2017-12-13T02:50:52.651Z,80.74
2017-12-13T02:51:52.669Z,81.59
2017-12-13T02:52:52.421Z,81.49
2017-12-13T02:53:52.432Z,81.68
2017-12-13T02:54:52.799Z,80.93
2017-12-13T02:55:52.708Z,81.02
2017-12-13T02:56:52.723Z,81.02
2017-12-13T02:57:52.732Z,80.45
2017-12-13T02:58:52.748Z,80.45
2017-12-13T02:59:52.760Z,80.45
2017-12-13T03:00:52.518Z,80.64
2017-12-13T03:01:52.783Z,80.55
2017-12-13T03:02:52.795Z,80.45
2017-12-13T03:03:52.809Z,80.36
2017-12-13T03:04:52.875Z,80.07
2017-12-13T03:05:52.831Z,79.79
2017-12-13T03:06:52.850Z,80.26
2017-12-13T03:07:52.854Z,80.17
2017-12-13T03:08:52.887Z,79.79
2017-12-13T03:09:52.878Z,80.26
2017-12-13T03:10:52.890Z,79.79
2017-12-13T03:11:52.901Z,80.36
2017-12-13T03:12:52.913Z,79.69
2017-12-13T03:13:52.928Z,79.6
2017-12-13T03:14:52.689Z,80.07
2017-12-13T03:15:52.951Z,79.98
2017-12-13T03:16:52.963Z,80.07
2017-12-13T03:17:52.983Z,79.88
2017-12-13T03:18:52.991Z,79.41
2017-12-13T03:19:53.047Z,79.32
2017-12-13T03:20:53.016Z,79.5
2017-12-13T03:21:53.027Z,79.13
2017-12-13T03:22:53.038Z,79.41
2017-12-13T03:23:53.048Z,79.6
2017-12-13T03:24:52.809Z,79.03
2017-12-13T03:25:53.072Z,79.5
2017-12-13T03:26:53.086Z,79.32
2017-12-13T03:27:52.849Z,79.32
2017-12-13T03:28:53.112Z,79.22
2017-12-13T03:29:53.120Z,79.22
2017-12-13T03:30:53.137Z,79.03
2017-12-13T03:31:53.148Z,79.41
2017-12-13T03:32:52.908Z,79.13
2017-12-13T03:33:52.918Z,79.32
2017-12-13T03:34:53.236Z,79.03
2017-12-13T03:35:52.942Z,78.85
2017-12-13T03:36:53.208Z,78.94
2017-12-13T03:37:53.220Z,79.13
2017-12-13T03:38:53.232Z,79.13
2017-12-13T03:39:53.244Z,79.13
2017-12-13T03:40:53.253Z,79.13
2017-12-13T03:41:53.270Z,79.32
2017-12-13T03:42:53.281Z,79.41
2017-12-13T03:43:53.287Z,79.13
2017-12-13T03:44:53.301Z,79.13
2017-12-13T03:45:53.314Z,78.56
2017-12-13T03:46:53.324Z,78.85
2017-12-13T03:47:53.339Z,78.75
2017-12-13T03:48:53.355Z,78.94
2017-12-13T03:49:53.413Z,78.75
2017-12-13T03:50:53.379Z,78.08
2017-12-13T03:51:53.133Z,77.89
2017-12-13T03:52:53.145Z,78.18
2017-12-13T03:53:53.155Z,77.89
2017-12-13T03:54:53.169Z,78.46
2017-12-13T03:55:53.432Z,78.08
2017-12-13T03:56:53.199Z,77.8
2017-12-13T03:57:53.205Z,78.27
2017-12-13T03:58:53.471Z,77.99
2017-12-13T03:59:53.229Z,78.08
2017-12-13T04:00:53.240Z,78.46
2017-12-13T04:01:53.507Z,78.37
2017-12-13T04:02:53.515Z,78.18
2017-12-13T04:03:53.530Z,77.8
2017-12-13T04:04:53.338Z,77.8
2017-12-13T04:05:53.571Z,78.08
2017-12-13T04:06:53.569Z,77.61
2017-12-13T04:07:53.581Z,77.8
2017-12-13T04:08:53.587Z,77.99
2017-12-13T04:09:53.348Z,77.14
2017-12-13T04:10:53.360Z,77.14
2017-12-13T04:11:53.624Z,77.89
2017-12-13T04:12:53.637Z,78.37
2017-12-13T04:13:53.646Z,77.99
2017-12-13T04:14:53.661Z,77.14
2017-12-13T04:15:53.674Z,77.99
2017-12-13T04:16:53.633Z,77.7
2017-12-13T04:17:53.695Z,77.8
2017-12-13T04:18:53.710Z,77.86
2017-12-13T04:19:53.767Z,78.18
2017-12-13T04:20:53.735Z,77.99
2017-12-13T04:21:53.743Z,78.05
2017-12-13T04:22:53.759Z,77.95
2017-12-13T04:23:53.769Z,77.76
2017-12-13T04:24:53.779Z,77.61
2017-12-13T04:25:53.790Z,78.08
2017-12-13T04:26:53.802Z,78.05
2017-12-13T04:27:53.818Z,78.14
2017-12-13T04:28:53.823Z,78.14
2017-12-13T04:29:53.840Z,77.86
2017-12-13T04:30:53.848Z,78.14
2017-12-13T04:31:53.612Z,78.14
2017-12-13T04:32:53.877Z,77.95
2017-12-13T04:33:53.888Z,77.95
2017-12-13T04:34:53.951Z,78.42
2017-12-13T04:35:53.911Z,78.05
2017-12-13T04:36:53.920Z,78.33
2017-12-13T04:37:53.931Z,78.42
2017-12-13T04:38:53.701Z,78.14
2017-12-13T04:39:53.956Z,78.23
2017-12-13T04:40:53.969Z,78.05
2017-12-13T04:41:53.979Z,78.52
2017-12-13T04:42:53.997Z,77.86
2017-12-13T04:43:54.003Z,78.42
2017-12-13T04:44:54.014Z,78.05
2017-12-13T04:45:54.033Z,78.42
2017-12-13T04:46:54.037Z,78.23
2017-12-13T04:47:54.103Z,78.42
2017-12-13T04:48:54.062Z,78.42
2017-12-13T04:49:54.123Z,77.86
2017-12-13T04:50:54.086Z,78.33
2017-12-13T04:51:54.097Z,78.23
2017-12-13T04:52:54.108Z,78.71
2017-12-13T04:53:54.121Z,78.9
2017-12-13T04:54:54.134Z,78.14
2017-12-13T04:55:54.147Z,78.8
2017-12-13T04:56:54.156Z,78.71
2017-12-13T04:57:53.912Z,78.33
2017-12-13T04:58:54.177Z,78.23
2017-12-13T04:59:53.938Z,79.09
2017-12-13T05:00:54.201Z,78.71
2017-12-13T05:01:53.960Z,78.9
2017-12-13T05:02:54.225Z,78.14
2017-12-13T05:03:54.237Z,78.33
2017-12-13T05:04:54.300Z,78.99
2017-12-13T05:05:54.263Z,78.9
2017-12-13T05:06:54.276Z,78.42
2017-12-13T05:07:54.282Z,78.14
2017-12-13T05:08:54.297Z,77.95
2017-12-13T05:09:54.054Z,78.14
2017-12-13T05:10:54.318Z,78.42
2017-12-13T05:11:54.331Z,78.23
2017-12-13T05:12:54.342Z,78.42
2017-12-13T05:13:54.356Z,78.71
2017-12-13T05:14:54.367Z,78.9
2017-12-13T05:15:54.404Z,78.8
2017-12-13T05:16:54.390Z,78.9
2017-12-13T05:17:54.403Z,78.61
2017-12-13T05:18:54.414Z,78.23
2017-12-13T05:19:54.170Z,78.23
2017-12-13T05:20:54.433Z,77.58
2017-12-13T05:21:54.445Z,77.58
2017-12-13T05:22:54.458Z,77.58
2017-12-13T05:23:54.467Z,77.86
2017-12-13T05:24:54.482Z,77.67
2017-12-13T05:25:54.498Z,77.39
2017-12-13T05:26:54.506Z,77.58
2017-12-13T05:27:54.518Z,77.2
2017-12-13T05:28:54.530Z,77.48
2017-12-13T05:29:54.288Z,77.2
2017-12-13T05:30:54.558Z,76.72
2017-12-13T05:31:54.313Z,77.2
2017-12-13T05:32:54.576Z,77.01
2017-12-13T05:33:54.638Z,77.2
2017-12-13T05:34:54.343Z,77.58
2017-12-13T05:35:54.610Z,78.05
2017-12-13T05:36:54.623Z,77.95
2017-12-13T05:37:54.690Z,78.8
2017-12-13T05:38:54.643Z,78.99
2017-12-13T05:39:54.404Z,78.71
2017-12-13T05:40:54.666Z,78.8
2017-12-13T05:41:54.677Z,79.09
2017-12-13T05:42:54.708Z,78.99
2017-12-13T05:43:54.704Z,79.18
2017-12-13T05:44:54.464Z,79.18
2017-12-13T05:45:54.727Z,79.94
2017-12-13T05:46:54.741Z,80.32
2017-12-13T05:47:54.755Z,80.22
2017-12-13T05:48:54.509Z,80.32
2017-12-13T05:49:54.523Z,80.88
2017-12-13T05:50:54.789Z,80.32
2017-12-13T05:51:54.801Z,80.51
2017-12-13T05:52:54.606Z,80.41
2017-12-13T05:53:54.825Z,80.41
2017-12-13T05:54:54.580Z,81.07
2017-12-13T05:55:54.593Z,80.79
2017-12-13T05:56:54.858Z,80.79
2017-12-13T05:57:54.870Z,80.88
2017-12-13T05:58:54.628Z,81.07
2017-12-13T05:59:54.896Z,80.98
2017-12-13T06:00:54.903Z,80.79
2017-12-13T06:01:54.663Z,80.79
2017-12-13T06:02:54.931Z,81.17
2017-12-13T06:03:54.684Z,80.88
2017-12-13T06:04:54.949Z,80.98
2017-12-13T06:05:54.708Z,80.98
2017-12-13T06:06:54.975Z,80.88
2017-12-13T06:07:54.783Z,80.79
2017-12-13T06:08:54.997Z,80.79
2017-12-13T06:09:55.011Z,81.07
2017-12-13T06:10:55.023Z,81.07
2017-12-13T06:11:55.031Z,80.88
2017-12-13T06:12:55.045Z,80.79
2017-12-13T06:13:55.076Z,80.69
2017-12-13T06:14:55.067Z,80.79
2017-12-13T06:15:55.081Z,80.79
2017-12-13T06:16:55.094Z,80.79
2017-12-13T06:17:55.105Z,80.98
2017-12-13T06:18:55.115Z,80.88
2017-12-13T06:19:55.132Z,80.79
2017-12-13T06:20:55.144Z,80.79
2017-12-13T06:21:55.149Z,80.98
2017-12-13T06:22:55.209Z,80.79
2017-12-13T06:23:55.173Z,80.98
2017-12-13T06:24:54.932Z,80.6
2017-12-13T06:25:55.197Z,80.79
2017-12-13T06:26:55.210Z,80.79
2017-12-13T06:27:55.224Z,80.6
2017-12-13T06:28:54.980Z,80.13
2017-12-13T06:29:54.992Z,80.32
2017-12-13T06:30:55.254Z,80.41
2017-12-13T06:31:55.268Z,80.6
2017-12-13T06:32:55.280Z,80.41
2017-12-13T06:33:55.291Z,80.13
2017-12-13T06:34:55.303Z,80.22
2017-12-13T06:35:55.316Z,80.04
2017-12-13T06:36:55.327Z,80.6
2017-12-13T06:37:55.396Z,80.22
2017-12-13T06:38:55.357Z,80.22
2017-12-13T06:39:55.106Z,80.04
2017-12-13T06:40:55.372Z,79.94
2017-12-13T06:41:55.133Z,80.32
2017-12-13T06:42:55.144Z,80.51
2017-12-13T06:43:55.409Z,80.22
2017-12-13T06:44:55.166Z,80.04
2017-12-13T06:45:55.179Z,80.41
2017-12-13T06:46:55.461Z,80.41
2017-12-13T06:47:55.458Z,80.32
2017-12-13T06:48:55.215Z,79.66
2017-12-13T06:49:55.225Z,79.94
2017-12-13T06:50:55.488Z,79.37
2017-12-13T06:51:55.499Z,79.75
2017-12-13T06:52:55.564Z,79.75
2017-12-13T06:53:55.274Z,79.47
2017-12-13T06:54:55.284Z,79.56
2017-12-13T06:55:55.664Z,79.66
2017-12-13T06:56:55.563Z,79.66
2017-12-13T06:57:55.575Z,80.04
2017-12-13T06:58:55.584Z,79.94
2017-12-13T06:59:55.601Z,79.56
2017-12-13T07:00:55.608Z,79.56
2017-12-13T07:01:55.617Z,79.28
2017-12-13T07:02:55.638Z,79.66
2017-12-13T07:03:55.649Z,79.47
2017-12-13T07:04:55.406Z,79.66
2017-12-13T07:05:55.668Z,79.75
2017-12-13T07:06:55.680Z,79.47
2017-12-13T07:07:55.742Z,79.37
2017-12-13T07:08:55.703Z,79.28
2017-12-13T07:09:55.714Z,79.09
2017-12-13T07:10:55.731Z,79.28
2017-12-13T07:11:55.744Z,79.18
2017-12-13T07:12:55.750Z,79.28
2017-12-13T07:13:55.762Z,79.85
2017-12-13T07:14:55.774Z,79.66
2017-12-13T07:15:55.787Z,80.22
2017-12-13T07:16:55.800Z,79.85
2017-12-13T07:17:55.557Z,79.47
2017-12-13T07:18:55.826Z,79.37
2017-12-13T07:19:55.583Z,78.99
2017-12-13T07:20:55.594Z,79.56
2017-12-13T07:21:55.859Z,79.09
2017-12-13T07:22:55.920Z,78.71
2017-12-13T07:23:55.882Z,78.42
2017-12-13T07:24:55.896Z,78.8
2017-12-13T07:25:55.903Z,78.71
2017-12-13T07:26:55.919Z,78.33
2017-12-13T07:27:55.930Z,78.52
2017-12-13T07:28:55.941Z,78.14
2017-12-13T07:29:55.698Z,78.23
2017-12-13T07:30:55.965Z,77.95
2017-12-13T07:31:55.974Z,77.86
2017-12-13T07:32:55.737Z,77.29
2017-12-13T07:33:56.007Z,77.33
2017-12-13T07:34:56.012Z,77.39
2017-12-13T07:35:56.027Z,76.86
2017-12-13T07:36:56.038Z,76.86
2017-12-13T07:37:56.101Z,76.76
2017-12-13T07:38:55.811Z,76.95
2017-12-13T07:39:56.073Z,76.38
2017-12-13T07:40:55.834Z,76.29
2017-12-13T07:41:56.103Z,76.48
2017-12-13T07:42:56.114Z,76.48
2017-12-13T07:43:55.894Z,76.19
2017-12-13T07:44:56.138Z,76
2017-12-13T07:45:56.146Z,75.62
2017-12-13T07:46:55.906Z,75.53
2017-12-13T07:47:56.169Z,74.87
2017-12-13T07:48:56.195Z,74.68
2017-12-13T07:49:56.195Z,74.02
2017-12-13T07:50:55.963Z,74.11
2017-12-13T07:51:55.970Z,74.49
2017-12-13T07:52:56.031Z,73.73
2017-12-13T07:53:55.996Z,74.02
2017-12-13T07:54:56.008Z,74.21
2017-12-13T07:55:56.020Z,73.77
2017-12-13T07:56:56.288Z,73.49
2017-12-13T07:57:56.297Z,72.73
2017-12-13T07:58:56.074Z,72.69
2017-12-13T07:59:56.072Z,72.6
2017-12-13T08:00:56.335Z,72.34
2017-12-13T08:01:56.097Z,72.31
2017-12-13T08:02:56.364Z,72.12
2017-12-13T08:03:56.375Z,72.63
2017-12-13T08:04:56.514Z,71.69
2017-12-13T08:05:56.403Z,71.4
2017-12-13T08:06:56.416Z,72.03
2017-12-13T08:07:56.480Z,72.03
2017-12-13T08:08:56.187Z,72.44
2017-12-13T08:09:56.441Z,71.88
2017-12-13T08:10:56.202Z,71.5
2017-12-13T08:11:56.468Z,71.5
2017-12-13T08:12:56.478Z,70.83
2017-12-13T08:13:56.491Z,70.36
2017-12-13T08:14:56.510Z,71.12
2017-12-13T08:15:56.267Z,70.55
2017-12-13T08:16:56.535Z,70.36
2017-12-13T08:17:56.554Z,70.07
2017-12-13T08:18:56.574Z,70.36
2017-12-13T08:19:56.329Z,70.26
2017-12-13T08:20:56.595Z,69.51
2017-12-13T08:21:56.608Z,69.03
2017-12-13T08:22:56.826Z,69.89
2017-12-13T08:23:56.635Z,69.22
2017-12-13T08:24:56.645Z,69.22
2017-12-13T08:25:56.660Z,69.41
2017-12-13T08:26:56.672Z,69.13
2017-12-13T08:27:56.692Z,69.22
2017-12-13T08:28:56.698Z,69.03
2017-12-13T08:29:56.712Z,68.75
2017-12-13T08:30:56.471Z,69.41
2017-12-13T08:31:56.486Z,68.94
2017-12-13T08:32:56.758Z,68.65
2017-12-13T08:33:56.511Z,68.75
2017-12-13T08:34:56.525Z,68.84
2017-12-13T08:35:56.793Z,68.18
2017-12-13T08:36:56.802Z,68.94
2017-12-13T08:37:56.866Z,68.94
2017-12-13T08:38:56.579Z,68.75
2017-12-13T08:39:56.844Z,68.65
2017-12-13T08:40:56.858Z,68.56
2017-12-13T08:41:56.872Z,68.56
2017-12-13T08:42:56.633Z,67.99
2017-12-13T08:43:56.899Z,67.61
2017-12-13T08:44:56.909Z,67.52
2017-12-13T08:45:56.925Z,67.9
2017-12-13T08:46:56.943Z,67.8
2017-12-13T08:47:57.019Z,67.43
2017-12-13T08:48:56.971Z,67.52
2017-12-13T08:49:56.976Z,68.08
2017-12-13T08:50:56.736Z,67.71
2017-12-13T08:51:57.008Z,67.52
2017-12-13T08:52:57.265Z,67.71
2017-12-13T08:53:57.028Z,67.71
2017-12-13T08:54:57.042Z,67.8
2017-12-13T08:55:57.052Z,68.08
2017-12-13T08:56:57.068Z,67.9
2017-12-13T08:57:56.828Z,67.36
2017-12-13T08:58:57.103Z,66.7
2017-12-13T08:59:57.108Z,67.36
2017-12-13T09:00:57.119Z,67.93
2017-12-13T09:01:57.135Z,67.93
2017-12-13T09:02:57.181Z,68.02
2017-12-13T09:03:56.907Z,67.46
2017-12-13T09:04:57.174Z,66.8
2017-12-13T09:05:56.934Z,66.7
2017-12-13T09:06:57.197Z,67.08
2017-12-13T09:07:57.271Z,66.51
2017-12-13T09:08:56.976Z,65.94
2017-12-13T09:09:56.999Z,66.51
2017-12-13T09:10:57.000Z,66.16
2017-12-13T09:11:57.268Z,65.84
2017-12-13T09:12:57.281Z,65.75
2017-12-13T09:13:57.041Z,66.32
2017-12-13T09:14:57.355Z,66.26
2017-12-13T09:15:57.067Z,65.12
2017-12-13T09:16:57.342Z,64.84
2017-12-13T09:17:57.112Z,64.74
2017-12-13T09:18:57.361Z,65.31
2017-12-13T09:19:57.381Z,65.12
2017-12-13T09:20:57.140Z,64.55
2017-12-13T09:21:57.405Z,64.55
2017-12-13T09:22:57.468Z,63.42
2017-12-13T09:23:57.433Z,63.23
2017-12-13T09:24:57.452Z,63.13
2017-12-13T09:25:57.465Z,63.13
2017-12-13T09:26:57.219Z,63.13
2017-12-13T09:27:57.236Z,63.32
2017-12-13T09:28:57.502Z,62.37
2017-12-13T09:29:57.514Z,62.18
2017-12-13T09:30:57.531Z,62.37
2017-12-13T09:31:57.544Z,61.71
2017-12-13T09:32:57.304Z,61.61
2017-12-13T09:33:57.572Z,61.74
2017-12-13T09:34:57.583Z,61.43
2017-12-13T09:35:57.598Z,61.71
2017-12-13T09:36:57.616Z,60.57
2017-12-13T09:37:57.681Z,60.79
2017-12-13T09:38:57.645Z,61.27
2017-12-13T09:39:57.659Z,60.7
2017-12-13T09:40:57.419Z,59.84
2017-12-13T09:41:57.721Z,60.31
2017-12-13T09:42:57.454Z,58.8
2017-12-13T09:43:57.463Z,59.18
2017-12-13T09:44:57.729Z,60.13
2017-12-13T09:45:57.757Z,60.31
2017-12-13T09:46:57.759Z,61.08
2017-12-13T09:47:57.520Z,59.94
2017-12-13T09:48:57.791Z,60.03
2017-12-13T09:49:57.554Z,60.13
2017-12-13T09:50:57.818Z,59.49
2017-12-13T09:51:57.834Z,57.59
2017-12-13T09:52:57.898Z,56.55
2017-12-13T09:53:57.869Z,55.79
2017-12-13T09:54:57.879Z,55.79
2017-12-13T09:55:57.905Z,55.79
2017-12-13T09:56:57.662Z,55.79
2017-12-13T09:57:57.776Z,56.08
2017-12-13T09:58:57.693Z,55.06
2017-12-13T09:59:57.965Z,53.54
2017-12-13T10:00:57.984Z,52.43
2017-12-13T10:01:58.001Z,52.91
2017-12-13T10:02:58.019Z,50.93
2017-12-13T10:03:58.037Z,50.08
2017-12-13T10:04:58.055Z,48.27
2017-12-13T10:05:58.076Z,48.68
2017-12-13T10:06:58.099Z,46.2
2017-12-13T10:07:58.166Z,46.11
2017-12-13T10:08:58.135Z,46.8
2017-12-13T10:09:58.157Z,45.09
2017-12-13T10:10:57.925Z,42.54
2017-12-13T10:11:58.202Z,42.14
2017-12-13T10:12:57.972Z,42.16
2017-12-13T10:13:57.992Z,42.54
2017-12-13T10:14:58.269Z,41.59
2017-12-13T10:15:58.308Z,41.04
2017-12-13T10:16:58.316Z,39.9
2017-12-13T10:17:58.339Z,39.61
2017-12-13T10:18:58.109Z,39.78
2017-12-13T10:19:58.383Z,39.9
2017-12-13T10:20:58.155Z,39.61
2017-12-13T10:21:58.433Z,40.01
2017-12-13T10:22:58.302Z,39.06
2017-12-13T10:23:58.478Z,39.44
2017-12-13T10:24:58.251Z,38.01
2017-12-13T10:25:58.528Z,36.79
2017-12-13T10:26:58.551Z,36.41
2017-12-13T10:27:58.327Z,36.22
2017-12-13T10:28:58.403Z,36.22
2017-12-13T10:29:58.629Z,37.74
2017-12-13T10:30:58.654Z,37.46
2017-12-13T10:31:58.677Z,36.24
2017-12-13T10:32:58.713Z,36.33
2017-12-13T10:33:58.729Z,35.87
2017-12-13T10:34:58.757Z,34.34
2017-12-13T10:35:58.779Z,33.68
2017-12-13T10:36:58.807Z,34.06
2017-12-13T10:37:58.629Z,34.44
2017-12-13T10:38:58.860Z,34.73
2017-12-13T10:39:58.633Z,34.44
2017-12-13T10:40:58.914Z,33.68
2017-12-13T10:41:58.941Z,33.03
2017-12-13T10:42:58.712Z,32.26
2017-12-13T10:43:58.739Z,33.03
2017-12-13T10:44:59.016Z,32.93
2017-12-13T10:45:59.047Z,32.07
2017-12-13T10:46:58.819Z,32.44
2017-12-13T10:47:59.099Z,33.12
2017-12-13T10:48:58.872Z,33.12
2017-12-13T10:49:59.152Z,32.55
2017-12-13T10:50:59.181Z,31.9
2017-12-13T10:51:59.206Z,31.13
2017-12-13T10:52:59.287Z,30.94
2017-12-13T10:53:59.007Z,30.75
2017-12-13T10:54:59.292Z,31.32
2017-12-13T10:55:59.313Z,31.05
2017-12-13T10:56:59.340Z,30.58
2017-12-13T10:57:59.369Z,31.05
2017-12-13T10:58:59.404Z,29.83
2017-12-13T10:59:59.426Z,30.59
2017-12-13T11:00:59.199Z,29.73
2017-12-13T11:01:59.479Z,30.02
2017-12-13T11:02:59.255Z,30.3
2017-12-13T11:03:59.286Z,30.59
2017-12-13T11:04:59.568Z,28.5
2017-12-13T11:05:59.340Z,28.41
2017-12-13T11:06:59.619Z,27.83
2017-12-13T11:07:59.648Z,27.47
2017-12-13T11:08:59.677Z,27.84
2017-12-13T11:09:59.708Z,27.37
2017-12-13T11:10:59.784Z,26.52
2017-12-13T11:11:59.763Z,25.66
2017-12-13T11:12:59.795Z,27.56
2017-12-13T11:13:59.829Z,27.09
2017-12-13T11:14:59.595Z,26.9
2017-12-13T11:15:59.876Z,25
2017-12-13T11:16:59.907Z,25.19
2017-12-13T11:17:59.934Z,25.96
2017-12-13T11:18:59.966Z,24.81
2017-12-13T11:19:59.739Z,23.57
2017-12-13T11:21:00.023Z,24.23
2017-12-13T11:22:00.049Z,23.28
2017-12-13T11:23:00.086Z,23.19
2017-12-13T11:24:00.113Z,22.91
2017-12-13T11:25:00.141Z,23.19
2017-12-13T11:26:00.171Z,22.61
2017-12-13T11:27:00.000Z,23
2017-12-13T11:28:00.230Z,24.23
2017-12-13T11:29:00.259Z,23.27
2017-12-13T11:30:00.293Z,23.19
2017-12-13T11:31:00.069Z,23.48
2017-12-13T11:32:00.350Z,22.42
2017-12-13T11:33:00.381Z,22.61
2017-12-13T11:34:00.412Z,21.86
2017-12-13T11:35:00.436Z,21.67
2017-12-13T11:36:00.215Z,21.28
2017-12-13T11:37:00.246Z,22.41
2017-12-13T11:38:00.527Z,22.22
2017-12-13T11:39:00.618Z,22.32
2017-12-13T11:40:00.595Z,22.7
2017-12-13T11:41:00.620Z,22.33
2017-12-13T11:42:00.702Z,22.7
2017-12-13T11:43:00.685Z,22.88
2017-12-13T11:44:00.720Z,23.17
2017-12-13T11:45:00.736Z,22.98
2017-12-13T11:46:00.766Z,23.47
2017-12-13T11:47:00.796Z,23.08
2017-12-13T11:48:00.826Z,22.89
2017-12-13T11:49:00.866Z,22.89
2017-12-13T11:50:00.887Z,23.75
2017-12-13T11:51:00.919Z,24.05
2017-12-13T11:52:01.073Z,22.82
2017-12-13T11:53:00.977Z,22.45
2017-12-13T11:54:00.755Z,22.64
2017-12-13T11:55:00.785Z,21.68
2017-12-13T11:56:01.073Z,21.68
2017-12-13T11:57:01.102Z,21.2
2017-12-13T11:58:01.129Z,22.25
2017-12-13T11:59:01.166Z,22.82
2017-12-13T12:00:00.942Z,21.2
2017-12-13T12:01:01.018Z,21.68
2017-12-13T12:02:01.249Z,21.31
2017-12-13T12:03:01.281Z,20.64
2017-12-13T12:04:01.061Z,20.92
2017-12-13T12:05:01.345Z,21.49
2017-12-13T12:06:01.371Z,21.2
2017-12-13T12:07:01.153Z,20.54
2017-12-13T12:08:01.435Z,21.2
2017-12-13T12:09:01.466Z,21.78
2017-12-13T12:10:01.516Z,21.2
2017-12-13T12:11:01.527Z,21.11
2017-12-13T12:12:01.303Z,20.72
2017-12-13T12:13:01.592Z,20.34
2017-12-13T12:14:01.619Z,19.76
2017-12-13T12:15:01.398Z,19.95
2017-12-13T12:16:01.736Z,19.67
2017-12-13T12:17:01.710Z,20.43
2017-12-13T12:18:01.742Z,20.62
2017-12-13T12:19:01.521Z,20.06
2017-12-13T12:20:01.803Z,19.78
2017-12-13T12:21:01.836Z,19.01
2017-12-13T12:22:01.615Z,19.67
2017-12-13T12:23:01.896Z,19.58
2017-12-13T12:24:01.924Z,19.59
2017-12-13T12:25:01.721Z,19.11
2017-12-13T12:26:01.991Z,19.2
2017-12-13T12:27:02.020Z,19.98
2017-12-13T12:28:02.069Z,19.21
2017-12-13T12:29:02.080Z,19.21
2017-12-13T12:30:01.859Z,20.08
2017-12-13T12:31:02.192Z,19.79
2017-12-13T12:32:02.182Z,19.12
2017-12-13T12:33:02.213Z,20.08
2017-12-13T12:34:02.240Z,19.6
2017-12-13T12:35:02.014Z,19.7
2017-12-13T12:36:02.300Z,19.03
2017-12-13T12:37:02.077Z,19.13
2017-12-13T12:38:02.361Z,18.46
2017-12-13T12:39:02.394Z,18.46
2017-12-13T12:40:02.424Z,18.26
2017-12-13T12:41:02.207Z,18.16
2017-12-13T12:42:02.486Z,18.44
2017-12-13T12:43:02.266Z,17.78
2017-12-13T12:44:02.569Z,17.88
2017-12-13T12:45:02.583Z,18.26
2017-12-13T12:46:02.406Z,18.44
2017-12-13T12:47:02.643Z,18.93
2017-12-13T12:48:02.673Z,17.49
2017-12-13T12:49:02.703Z,17.3
2017-12-13T12:50:02.484Z,17.21
2017-12-13T12:51:02.515Z,16.64
2017-12-13T12:52:02.801Z,17.01
2017-12-13T12:53:02.827Z,17.19
2017-12-13T12:54:02.859Z,18.16
2017-12-13T12:55:02.841Z,17.21
2017-12-13T12:56:02.925Z,16.93